Time;durP1;ratioP1;P1;durP2;ratioP2;P2;SDS_P1;SDS_P2;PMS_P1;PMS_P2;Temp;Humidity;BMP_temperature;BMP_pressure;BME280_temperature;BME280_humidity;BME280_pressure;Samples;Min_cycle;Max_cycle;Signal;HPM_P1;HPM_P2
2022/03/26 00:01:15;;;;;;;39.10;30.77;;;;;;;5.88;54.14;100805.09;1697568;83;21176;-73
2022/03/26 00:03:42;;;;;;;31.10;25.57;;;;;;;5.83;54.12;100804.68;1707505;83;21871;-72
2022/03/26 00:06:09;;;;;;;30.60;24.67;;;;;;;5.81;54.16;100797.38;1706086;83;21043;-72
2022/03/26 00:08:36;;;;;;;27.07;23.87;;;;;;;5.78;54.18;100788.41;1708446;83;21105;-69
2022/03/26 00:11:04;;;;;;;30.47;24.00;;;;;;;5.76;54.17;100787.72;1706091;83;21154;-73
2022/03/26 00:13:31;;;;;;;;;;;;;;;5.74;54.30;100778.60;1688204;83;21081;-71
2022/03/26 00:15:58;;;;;;;24.30;20.63;;;;;;;5.73;54.18;100781.42;1699225;83;20166;-72
2022/03/26 00:18:25;;;;;;;25.40;20.43;;;;;;;5.64;54.20;100776.50;1685674;83;21034;-70
2022/03/26 00:20:52;;;;;;;21.73;19.15;;;;;;;5.64;54.17;100778.65;1685658;83;21074;-72
2022/03/26 00:23:18;;;;;;;;;;;;;;;5.65;53.96;100780.80;1687880;83;21077;-75
2022/03/26 00:25:45;;;;;;;23.47;18.80;;;;;;;5.64;53.84;100776.00;1685284;83;20222;-74
2022/03/26 00:28:12;;;;;;;23.10;17.37;;;;;;;5.59;53.76;100772.95;1687310;83;21089;-71
2022/03/26 00:30:38;;;;;;;16.62;14.85;;;;;;;5.60;53.43;100778.59;1686958;83;21098;-71
2022/03/26 00:33:05;;;;;;;21.03;18.30;;;;;;;5.59;53.11;100766.84;1686639;83;21064;-73
2022/03/26 00:35:31;;;;;;;20.82;16.70;;;;;;;5.59;52.93;100770.30;1690306;83;21450;-72
2022/03/26 00:37:58;;;;;;;18.70;15.27;;;;;;;5.14;52.73;100689.11;1692304;83;22270;-71
2022/03/26 00:40:25;;;;;;;17.27;15.37;;;;;;;5.59;52.52;100758.41;1690451;83;21063;-73
2022/03/26 00:42:52;;;;;;;16.40;14.10;;;;;;;5.61;52.31;100754.30;1686774;83;21093;-74
2022/03/26 00:45:20;;;;;;;18.20;14.97;;;;;;;5.62;52.10;100752.02;1687188;83;21545;-73
2022/03/26 00:47:46;;;;;;;15.40;13.83;;;;;;;5.64;52.06;100748.23;1694857;83;22007;-72
2022/03/26 00:50:13;;;;;;;20.05;13.95;;;;;;;5.63;52.05;100753.20;1703522;83;21605;-73
2022/03/26 00:52:41;;;;;;;13.97;12.57;;;;;;;5.64;52.06;100752.20;1692147;83;21660;-75
2022/03/26 00:55:09;;;;;;;17.98;15.45;;;;;;;5.64;52.03;100756.17;1684509;83;21655;-73
2022/03/26 00:57:36;;;;;;;16.87;13.93;;;;;;;5.63;51.85;100749.23;1690880;83;21149;-70
2022/03/26 01:00:06;;;;;;;16.00;14.30;;;;;;;5.63;51.83;100745.73;1692162;83;21102;-73
2022/03/26 01:02:33;;;;;;;16.13;14.40;;;;;;;5.60;51.73;100748.19;1690991;83;21006;-73
2022/03/26 01:05:00;;;;;;;;;;;;;;;5.57;51.68;100741.86;1685509;83;21069;-71
2022/03/26 01:07:27;;;;;;;17.57;14.60;;;;;;;5.57;51.46;100741.86;1691500;83;20433;-72
2022/03/26 01:09:55;;;;;;;15.37;13.77;;;;;;;5.53;51.32;100737.84;1709685;83;21615;-73
2022/03/26 01:12:24;;;;;;;16.27;14.03;;;;;;;5.55;51.08;100729.77;1662312;84;21022;-71
2022/03/26 01:14:52;;;;;;;19.27;16.27;;;;;;;5.57;50.80;100730.45;1663549;84;21039;-74
2022/03/26 01:17:19;;;;;;;17.70;14.90;;;;;;;5.57;50.91;100725.16;1661832;84;21192;-72
2022/03/26 01:19:46;;;;;;;18.33;15.50;;;;;;;5.56;50.85;100726.98;1661323;84;21114;-74
2022/03/26 01:22:12;;;;;;;;;;;;;;;5.54;50.77;100722.34;1662460;84;21062;-73
2022/03/26 01:24:39;;;;;;;16.10;13.20;;;;;;;5.55;50.44;100723.98;1653355;84;20120;-74
2022/03/26 01:27:07;;;;;;;17.50;14.13;;;;;;;5.52;50.43;100721.66;1656909;84;22167;-71
2022/03/26 01:29:40;;;;;;;16.10;14.40;;;;;;;5.54;50.47;100718.37;1646868;84;21030;-73
2022/03/26 01:32:09;;;;;;;16.73;14.73;;;;;;;5.55;50.52;100721.34;1641532;84;21146;-73
2022/03/26 01:34:39;;;;;;;17.97;14.33;;;;;;;5.54;50.57;100713.55;1654072;84;21630;-74
2022/03/26 01:37:06;;;;;;;17.03;15.07;;;;;;;5.52;50.64;100712.40;1646629;84;21021;-73
2022/03/26 01:39:32;;;;;;;22.02;16.07;;;;;;;5.51;50.58;100716.50;1662328;84;21567;-73
2022/03/26 01:42:06;;;;;;;17.17;14.97;;;;;;;5.50;50.58;100713.50;1649815;84;21060;-73
2022/03/26 01:44:37;;;;;;;15.83;14.23;;;;;;;5.50;50.64;100713.50;1656143;84;20977;-74
2022/03/26 01:47:05;;;;;;;16.63;14.30;;;;;;;5.48;50.62;100704.89;1631108;86;21085;-72
2022/03/26 01:49:33;;;;;;;16.73;14.70;;;;;;;5.47;50.67;100705.38;1625715;86;21051;-72
2022/03/26 01:52:01;;;;;;;18.03;15.67;;;;;;;5.45;50.73;100695.45;1636734;86;21473;-73
2022/03/26 01:54:28;;;;;;;17.63;15.17;;;;;;;5.45;50.65;100694.95;1650962;85;21069;-71
2022/03/26 01:56:56;;;;;;;17.10;14.67;;;;;;;5.46;50.61;100691.81;1644634;85;21624;-73
2022/03/26 01:59:27;;;;;;;17.73;13.90;;;;;;;5.47;50.65;100689.52;1666149;85;21416;-70
2022/03/26 02:01:54;;;;;;;23.17;15.20;;;;;;;5.49;50.63;100691.53;1652852;84;21564;-73
2022/03/26 02:04:24;;;;;;;15.67;14.00;;;;;;;5.51;50.62;100686.09;1642922;85;21147;-71
2022/03/26 02:06:51;;;;;;;18.60;14.30;;;;;;;5.54;50.52;100683.14;1631956;85;21077;-74
2022/03/26 02:09:19;;;;;;;16.33;14.33;;;;;;;5.54;50.51;100677.38;1636731;85;21142;-73
2022/03/26 02:11:46;;;;;;;21.15;15.30;;;;;;;5.55;50.44;100670.27;1625715;85;21594;-74
2022/03/26 02:14:14;;;;;;;18.63;15.37;;;;;;;5.56;50.48;100670.13;1627246;86;21096;-73
2022/03/26 02:16:43;;;;;;;15.53;13.37;;;;;;;5.56;50.40;100670.13;1610662;87;21041;-74
2022/03/26 02:19:11;;;;;;;17.13;14.07;;;;;;;5.56;50.42;100668.81;1597451;88;21323;-74
2022/03/26 02:21:39;;;;;;;16.57;14.80;;;;;;;5.58;50.40;100666.03;1630327;86;22161;-73
2022/03/26 02:24:08;;;;;;;22.73;14.83;;;;;;;5.57;50.44;100659.88;1625382;86;22267;-74
2022/03/26 02:26:37;;;;;;;19.27;14.83;;;;;;;5.57;50.50;100659.88;1630840;86;21043;-74
2022/03/26 02:29:10;;;;;;;19.53;14.67;;;;;;;5.57;50.53;100659.05;1617017;86;21083;-72
2022/03/26 02:31:38;;;;;;;17.67;14.87;;;;;;;5.56;50.60;100663.52;1636209;86;21063;-75
2022/03/26 02:34:07;;;;;;;16.97;14.67;;;;;;;5.57;50.67;100657.23;1649335;85;21152;-73
2022/03/26 02:36:34;;;;;;;16.70;14.90;;;;;;;5.59;50.75;100665.03;1620022;86;21044;-74
2022/03/26 02:39:01;;;;;;;18.80;14.63;;;;;;;5.60;50.81;100668.85;1663612;85;21085;-73
2022/03/26 02:41:28;;;;;;;16.93;15.13;;;;;;;5.60;50.78;100656.95;1675325;84;21596;-74
2022/03/26 02:43:55;;;;;;;16.97;14.30;;;;;;;5.63;50.86;100651.38;1649699;84;21074;-73
2022/03/26 02:46:22;;;;;;;18.30;15.00;;;;;;;5.64;50.85;100638.98;1642382;84;21104;-74
2022/03/26 02:48:50;;;;;;;17.10;15.33;;;;;;;5.66;50.82;100640.48;1672087;84;21042;-75
2022/03/26 02:51:16;;;;;;;16.37;14.53;;;;;;;5.66;50.82;100639.16;1641264;84;21517;-74
2022/03/26 02:53:44;;;;;;;17.57;14.90;;;;;;;5.68;50.64;100642.16;1642421;84;21651;-74
2022/03/26 02:56:11;;;;;;;18.83;15.60;;;;;;;5.70;50.46;100642.34;1630580;86;21130;-74
2022/03/26 02:58:37;;;;;;;19.80;16.30;;;;;;;5.71;50.58;100636.08;1667820;84;21120;-74
2022/03/26 03:01:05;;;;;;;18.23;14.68;;;;;;;5.71;50.63;100634.77;1674481;84;21054;-74
2022/03/26 03:03:32;;;;;;;17.20;15.17;;;;;;;5.71;50.59;100636.55;1652371;84;21132;-72
2022/03/26 03:05:59;;;;;;;;;;;;;;;5.70;50.59;100629.12;1657434;84;21096;-73
2022/03/26 03:08:26;;;;;;;24.05;16.93;;;;;;;5.71;50.59;100622.86;1666649;85;20137;-74
2022/03/26 03:10:54;;;;;;;26.67;19.93;;;;;;;5.64;50.64;100612.03;1640064;84;21177;-72
2022/03/26 03:13:22;;;;;;;21.30;18.93;;;;;;;5.63;50.50;100615.67;1634018;85;21065;-70
2022/03/26 03:15:50;;;;;;;22.22;18.98;;;;;;;5.65;50.51;100612.86;1637377;85;21039;-72
2022/03/26 03:18:19;;;;;;;23.07;19.50;;;;;;;5.66;50.56;100612.72;1635587;85;21082;-75
2022/03/26 03:20:45;;;;;;;26.17;21.37;;;;;;;5.68;50.43;100605.95;1625778;86;21607;-74
2022/03/26 03:23:13;;;;;;;24.77;19.63;;;;;;;5.69;50.47;100603.67;1651001;85;21124;-74
2022/03/26 03:25:40;;;;;;;24.17;20.73;;;;;;;5.71;50.42;100602.17;1625248;86;21165;-74
2022/03/26 03:28:07;;;;;;;23.27;18.70;;;;;;;5.72;50.33;100596.73;1603015;87;21576;-75
2022/03/26 03:30:33;;;;;;;24.27;19.40;;;;;;;5.74;50.26;100592.13;1656983;85;21058;-74
2022/03/26 03:32:59;;;;;;;;;;;;;;;5.78;50.23;100601.91;1605975;88;21549;-75
2022/03/26 03:35:26;;;;;;;21.33;17.50;;;;;;;5.76;50.26;100597.27;1625633;86;20134;-73
2022/03/26 03:37:53;;;;;;;19.98;15.25;;;;;;;5.71;50.28;100595.09;1651733;85;21581;-74
2022/03/26 03:40:19;;;;;;;21.60;16.60;;;;;;;5.70;50.19;100591.27;1655380;85;21169;-73
2022/03/26 03:42:46;;;;;;;19.65;16.48;;;;;;;5.71;50.17;100593.77;1656976;85;21557;-73
2022/03/26 03:45:13;;;;;;;18.40;16.40;;;;;;;5.74;50.17;100586.02;1641249;85;21110;-72
2022/03/26 03:47:40;;;;;;;22.17;16.33;;;;;;;5.76;50.07;100584.87;1617616;86;21092;-72
2022/03/26 03:50:08;;;;;;;17.50;15.63;;;;;;;5.77;50.14;100581.75;1627396;86;21107;-74
2022/03/26 03:52:35;;;;;;;18.33;15.70;;;;;;;5.76;50.13;100581.40;1631294;86;21069;-72
2022/03/26 03:55:04;;;;;;;17.83;15.90;;;;;;;5.77;50.14;100574.64;1633823;86;21568;-73
2022/03/26 03:57:32;;;;;;;17.33;15.37;;;;;;;5.80;50.12;100573.50;1629122;86;21567;-73
2022/03/26 03:59:58;;;;;;;17.77;15.23;;;;;;;5.84;50.20;100566.94;1628525;86;21880;-73
2022/03/26 04:02:25;;;;;;;19.17;16.27;;;;;;;5.88;50.39;100565.66;1687015;83;22311;-73
2022/03/26 04:04:51;;;;;;;24.27;17.92;;;;;;;5.93;50.48;100568.65;1647678;85;21495;-73
2022/03/26 04:07:18;;;;;;;28.23;20.77;;;;;;;5.96;50.51;100567.06;1645830;85;21040;-73
2022/03/26 04:09:46;;;;;;;22.60;17.93;;;;;;;5.99;50.52;100561.95;1680841;83;21085;-73
2022/03/26 04:12:15;;;;;;;20.30;15.23;;;;;;;6.02;50.53;100561.16;1672094;83;21031;-72
2022/03/26 04:14:43;;;;;;;21.23;15.57;;;;;;;6.13;50.41;100563.23;1689223;83;21121;-74
2022/03/26 04:17:12;;;;;;;18.23;14.93;;;;;;;6.37;50.08;100566.05;1693592;83;21055;-73
2022/03/26 04:19:40;;;;;;;16.30;14.50;;;;;;;6.70;49.68;100564.91;1696426;83;22250;-72
2022/03/26 04:22:07;;;;;;;18.97;14.40;;;;;;;7.12;48.58;100550.88;1687271;83;21039;-72
2022/03/26 04:24:36;;;;;;;17.93;15.60;;;;;;;7.53;47.73;100539.52;1675727;83;21089;-74
2022/03/26 04:27:04;;;;;;;17.87;14.87;;;;;;;8.05;46.87;100533.09;1679580;83;21567;-74
2022/03/26 04:29:31;;;;;;;15.53;13.87;;;;;;;8.60;45.62;100529.70;1689121;83;21034;-76
2022/03/26 04:31:57;;;;;;;;;;;;;;;9.16;44.33;100521.16;1698144;83;21780;-73
2022/03/26 04:34:25;;;;;;;21.95;14.78;;;;;;;9.68;42.90;100517.02;1671388;83;20194;-72
2022/03/26 04:36:53;;;;;;;18.80;14.73;;;;;;;10.16;42.31;100516.77;1670382;83;21171;-73
2022/03/26 04:39:20;;;;;;;18.63;14.03;;;;;;;10.73;41.25;100514.53;1644740;85;21102;-72
2022/03/26 04:41:47;;;;;;;17.83;14.13;;;;;;;11.25;39.59;100508.19;1649741;84;21069;-74
2022/03/26 04:44:14;;;;;;;19.90;14.07;;;;;;;11.63;38.62;100504.77;1685487;83;21066;-73
2022/03/26 04:46:42;;;;;;;15.83;12.95;;;;;;;11.95;37.95;100500.47;1671482;83;21162;-74
2022/03/26 04:49:09;;;;;;;14.95;13.35;;;;;;;12.31;37.63;100496.30;1670443;83;21064;-72
2022/03/26 04:51:36;;;;;;;14.75;13.03;;;;;;;12.70;36.65;100495.40;1675231;83;21011;-73
2022/03/26 04:54:03;;;;;;;17.15;13.98;;;;;;;13.01;35.79;100497.57;1686010;83;21659;-74
2022/03/26 04:56:31;;;;;;;15.00;13.13;;;;;;;13.28;35.06;100491.80;1693600;83;21042;-73
2022/03/26 04:58:58;;;;;;;16.67;12.65;;;;;;;13.47;34.43;100492.90;1683061;83;21101;-73
2022/03/26 05:01:25;;;;;;;16.77;13.62;;;;;;;13.54;33.93;100495.57;1677921;83;21572;-73
2022/03/26 05:03:51;;;;;;;18.77;13.30;;;;;;;13.38;33.84;100493.59;1657573;84;21195;-71
2022/03/26 05:06:18;;;;;;;;;;;;;;;13.22;34.05;100488.57;1652777;84;21045;-72
2022/03/26 05:08:45;;;;;;;16.20;14.38;;;;;;;13.18;34.08;100488.15;1669483;84;20137;-72
2022/03/26 05:11:13;;;;;;;16.12;14.05;;;;;;;13.07;34.05;100488.73;1663448;84;21140;-69
2022/03/26 05:13:40;;;;;;;16.30;13.88;;;;;;;13.26;34.25;100491.19;1651831;86;21224;-73
2022/03/26 05:16:07;;;;;;;15.95;13.00;;;;;;;13.60;33.76;100492.91;1658470;85;21031;-76
2022/03/26 05:18:36;;;;;;;15.53;13.80;;;;;;;13.81;32.57;100480.36;1659706;86;21073;-75
2022/03/26 05:21:03;;;;;;;16.45;13.85;;;;;;;13.89;32.78;100479.33;1663135;86;21031;-75
2022/03/26 05:23:30;;;;;;;14.23;12.75;;;;;;;14.12;32.62;100477.55;1658567;85;21035;-74
2022/03/26 05:25:58;;;;;;;12.80;11.60;;;;;;;14.54;32.06;100472.21;1651046;85;21062;-74
2022/03/26 05:28:24;;;;;;;13.80;12.35;;;;;;;14.96;31.46;100472.69;1661093;85;21293;-76
2022/03/26 05:30:51;;;;;;;15.35;12.40;;;;;;;15.17;30.71;100465.36;1653736;86;21444;-73
2022/03/26 05:33:18;;;;;;;16.05;13.93;;;;;;;15.31;30.30;100466.09;1651835;85;21050;-75
2022/03/26 05:35:47;;;;;;;16.30;13.98;;;;;;;15.40;30.30;100455.39;1650805;85;21609;-74
2022/03/26 05:38:13;;;;;;;13.65;12.10;;;;;;;15.32;30.55;100452.98;1645145;85;21039;-73
2022/03/26 05:40:41;;;;;;;13.88;11.68;;;;;;;15.14;30.73;100448.33;1654496;85;21090;-74
2022/03/26 05:46:01;;;;;;;14.63;12.37;;;;;;;14.96;31.20;100453.90;1803275;76;22841;-73
2022/03/26 05:48:27;;;;;;;15.90;12.95;;;;;;;14.90;31.01;100455.26;1772615;79;21503;-73
2022/03/26 05:50:56;;;;;;;14.28;12.78;;;;;;;14.93;31.31;100452.97;1774322;79;21040;-73
2022/03/26 05:53:22;;;;;;;15.23;13.03;;;;;;;15.07;30.34;100444.84;1773665;79;21063;-73
2022/03/26 05:55:50;;;;;;;16.95;12.60;;;;;;;15.02;30.46;100440.14;1773903;79;20981;-74
2022/03/26 05:58:16;;;;;;;15.25;12.50;;;;;;;15.06;30.53;100438.66;1746524;80;21068;-75
2022/03/26 06:00:42;;;;;;;;;;;;;;;15.21;30.59;100430.84;1759078;80;21037;-74
2022/03/26 06:03:10;;;;;;;17.12;12.53;;;;;;;15.30;30.22;100421.48;1759598;80;20201;-75
2022/03/26 06:05:38;;;;;;;12.55;11.25;;;;;;;15.22;30.05;100422.58;1745535;80;20968;-73
2022/03/26 06:08:05;;;;;;;16.48;12.63;;;;;;;15.28;30.13;100423.58;1693261;83;21069;-73
2022/03/26 06:10:34;;;;;;;14.65;12.80;;;;;;;15.41;29.83;100422.13;1708771;82;21075;-72
2022/03/26 06:13:01;;;;;;;13.80;12.25;;;;;;;15.48;29.87;100413.52;1705337;82;21030;-73
2022/03/26 06:15:27;;;;;;;14.87;13.35;;;;;;;15.49;29.83;100415.67;1724893;82;21073;-73
2022/03/26 06:17:54;;;;;;;14.95;13.22;;;;;;;15.29;30.58;100413.12;1714444;83;21227;-72
2022/03/26 06:20:22;;;;;;;12.98;11.75;;;;;;;15.31;30.14;100409.19;1681400;84;21608;-72
2022/03/26 06:22:49;;;;;;;15.70;14.10;;;;;;;15.27;30.64;100393.72;1688957;83;21043;-73
2022/03/26 06:25:15;;;;;;;19.27;14.03;;;;;;;15.30;30.26;100392.77;1722571;83;21576;-73
2022/03/26 06:27:42;;;;;;;14.50;12.98;;;;;;;15.20;30.71;100393.78;1706953;83;21049;-72
2022/03/26 06:30:11;;;;;;;16.62;13.72;;;;;;;15.07;30.91;100389.32;1711607;83;21013;-73
2022/03/26 06:32:38;;;;;;;15.10;13.50;;;;;;;15.03;31.23;100385.92;1711276;84;21055;-73
2022/03/26 06:35:06;;;;;;;14.98;13.38;;;;;;;15.07;30.94;100387.98;1728976;81;21110;-73
2022/03/26 06:37:33;;;;;;;20.25;14.05;;;;;;;14.94;30.95;100388.88;1734434;81;21076;-73
2022/03/26 06:40:00;;;;;;;;;;;;;;;14.59;31.42;100385.23;1714928;82;21104;-73
2022/03/26 06:42:26;;;;;;;15.45;12.47;;;;;;;14.32;32.14;100398.44;1734193;81;20498;-73
2022/03/26 06:44:58;;;;;;;18.15;13.48;;;;;;;14.12;32.29;100391.25;1735330;81;21484;-73
2022/03/26 06:47:22;;;;;;;19.90;14.25;;;;;;;14.13;32.52;100378.70;1733817;81;21097;-70
2022/03/26 06:49:50;;;;;;;19.57;13.78;;;;;;;14.14;32.59;100378.46;1727221;81;21528;-74
2022/03/26 06:52:16;;;;;;;19.62;14.43;;;;;;;14.00;32.87;100375.00;1711190;82;21739;-74
2022/03/26 06:54:43;;;;;;;19.85;14.35;;;;;;;13.77;33.27;100371.45;1711929;82;21055;-73
2022/03/26 06:57:11;;;;;;;20.92;15.50;;;;;;;13.59;33.69;100369.39;1685888;84;21064;-74
2022/03/26 06:59:38;;;;;;;18.67;13.75;;;;;;;13.46;34.00;100365.39;1690346;83;21582;-72
2022/03/26 07:02:07;;;;;;;21.50;15.95;;;;;;;13.36;34.70;100355.09;1694076;83;21581;-73
2022/03/26 07:04:34;;;;;;;23.90;14.90;;;;;;;13.35;34.35;100351.28;1709192;82;21536;-74
2022/03/26 07:07:03;;;;;;;22.48;16.67;;;;;;;13.30;34.63;100345.69;1725000;82;21028;-73
2022/03/26 07:09:30;;;;;;;20.80;13.90;;;;;;;13.29;34.70;100346.20;1711010;82;21464;-70
2022/03/26 07:11:57;;;;;;;19.40;14.80;;;;;;;13.31;34.99;100350.05;1704223;82;21036;-73
2022/03/26 07:14:24;;;;;;;19.82;15.78;;;;;;;13.31;34.84;100341.50;1693973;82;21184;-74
2022/03/26 07:16:53;;;;;;;22.58;17.12;;;;;;;13.27;34.92;100334.07;1703645;82;21048;-73
2022/03/26 07:19:21;;;;;;;18.62;15.98;;;;;;;13.22;35.01;100334.67;1696940;82;21123;-73
2022/03/26 07:21:49;;;;;;;24.15;17.15;;;;;;;13.13;35.08;100334.07;1701551;82;21144;-75
2022/03/26 07:24:19;;;;;;;21.10;15.72;;;;;;;13.08;35.50;100334.38;1700459;82;21090;-75
2022/03/26 07:26:46;;;;;;;22.07;15.88;;;;;;;13.03;35.43;100338.49;1701328;82;21061;-74
2022/03/26 07:29:13;;;;;;;19.85;15.53;;;;;;;12.93;35.64;100333.22;1707514;81;21077;-75
2022/03/26 07:31:40;;;;;;;23.65;18.10;;;;;;;12.88;35.93;100331.14;1692165;82;22257;-72
2022/03/26 07:34:07;;;;;;;21.07;16.82;;;;;;;12.91;35.77;100322.72;1699734;82;21106;-75
2022/03/26 07:36:35;;;;;;;22.07;16.67;;;;;;;12.84;36.01;100320.55;1712304;81;21038;-71
2022/03/26 07:39:02;;;;;;;27.48;18.62;;;;;;;12.73;36.23;100316.61;1712687;81;21077;-74
2022/03/26 07:41:30;;;;;;;23.42;18.55;;;;;;;12.70;36.46;100309.01;1720979;81;21556;-71
2022/03/26 07:43:57;;;;;;;25.30;18.70;;;;;;;12.76;36.40;100306.03;1717073;81;21080;-71
2022/03/26 07:46:24;;;;;;;24.07;18.20;;;;;;;12.76;36.45;100304.70;1689076;83;21635;-71
2022/03/26 07:48:51;;;;;;;26.15;19.85;;;;;;;12.76;36.68;100296.67;1723535;81;21012;-71
2022/03/26 07:51:19;;;;;;;26.15;19.50;;;;;;;12.75;36.71;100289.66;1722511;81;21107;-70
2022/03/26 07:53:47;;;;;;;28.73;19.42;;;;;;;12.75;36.80;100291.00;1707137;81;21111;-70
2022/03/26 07:56:14;;;;;;;31.80;20.25;;;;;;;12.71;36.87;100280.41;1714435;81;22114;-70
2022/03/26 07:58:43;;;;;;;24.80;20.35;;;;;;;12.69;37.00;100275.78;1689551;83;21178;-69
2022/03/26 08:01:11;;;;;;;28.32;18.60;;;;;;;12.76;37.13;100269.93;1685485;81;21024;-70
2022/03/26 08:03:39;;;;;;;28.35;18.85;;;;;;;12.96;37.13;100264.08;1688830;83;21067;-69
2022/03/26 08:06:08;;;;;;;28.57;20.17;;;;;;;13.12;37.55;100252.12;1684688;83;21706;-71
2022/03/26 08:08:36;;;;;;;30.35;19.90;;;;;;;13.30;36.61;100256.01;1683570;83;21091;-71
2022/03/26 08:11:03;;;;;;;29.23;20.25;;;;;;;13.40;36.49;100237.71;1685750;83;21013;-72
2022/03/26 08:13:33;;;;;;;27.60;20.35;;;;;;;13.51;36.22;100245.62;1680963;83;21016;-70
2022/03/26 08:16:01;;;;;;;24.63;18.60;;;;;;;13.55;35.81;100234.80;1689471;83;22239;-70
2022/03/26 08:18:28;;;;;;;29.30;20.72;;;;;;;13.58;35.87;100226.32;1675947;83;21422;-70
2022/03/26 08:20:56;;;;;;;27.00;20.02;;;;;;;13.61;35.93;100234.77;1697133;83;21120;-72
2022/03/26 08:23:24;;;;;;;28.15;19.17;;;;;;;13.63;36.37;100221.16;1692688;82;21623;-71
2022/03/26 08:28:41;;;;;;;30.82;22.48;;;;;;;13.68;35.68;100219.20;1746517;80;22249;-72
2022/03/26 08:31:10;;;;;;;26.65;20.02;;;;;;;13.72;35.65;100211.86;1727704;81;21085;-71
2022/03/26 08:33:38;;;;;;;38.63;22.07;;;;;;;13.81;35.89;100216.48;1717686;82;21045;-71
2022/03/26 08:36:06;;;;;;;30.85;23.30;;;;;;;14.00;35.66;100204.84;1705651;83;21546;-72
2022/03/26 08:38:34;;;;;;;29.52;21.75;;;;;;;14.15;35.00;100199.19;1767405;79;21565;-71
2022/03/26 08:41:05;;;;;;;28.98;22.45;;;;;;;14.26;35.90;100200.87;1763932;80;21021;-71
2022/03/26 08:43:32;;;;;;;30.25;23.35;;;;;;;14.40;34.64;100197.88;1764229;80;21068;-70
2022/03/26 08:46:00;;;;;;;28.80;21.62;;;;;;;14.53;34.50;100188.93;1735246;80;21567;-70
2022/03/26 08:48:28;;;;;;;30.05;22.85;;;;;;;14.56;33.96;100183.14;1728595;81;21020;-71
2022/03/26 08:50:55;;;;;;;34.30;23.67;;;;;;;14.60;34.09;100179.01;1725807;81;21623;-70
2022/03/26 08:53:23;;;;;;;28.15;21.73;;;;;;;14.67;33.86;100172.23;1698094;83;21040;-71
2022/03/26 08:55:52;;;;;;;25.97;20.37;;;;;;;14.76;33.99;100157.50;1725725;81;21032;-70
2022/03/26 08:58:19;;;;;;;27.90;19.48;;;;;;;14.91;34.08;100160.38;1723926;81;21097;-70
2022/03/26 09:00:51;;;;;;;23.35;18.07;;;;;;;15.07;33.82;100151.75;1737341;80;21101;-71
2022/03/26 09:03:21;;;;;;;20.43;17.00;;;;;;;14.99;34.22;100147.50;1759344;80;21055;-71
2022/03/26 09:05:54;;;;;;;26.48;17.48;;;;;;;14.90;34.50;100140.78;1725519;81;21071;-72
2022/03/26 09:08:21;;;;;;;21.80;18.00;;;;;;;14.82;34.99;100143.72;1754770;80;21112;-72
2022/03/26 09:10:51;;;;;;;22.07;19.02;;;;;;;14.74;35.19;100133.28;1732924;81;21124;-72
2022/03/26 09:13:20;;;;;;;29.48;20.60;;;;;;;14.77;35.44;100130.17;1756446;80;21024;-71
2022/03/26 09:15:51;;;;;;;27.22;18.67;;;;;;;14.83;35.57;100134.64;1767242;80;20985;-72
2022/03/26 09:18:21;;;;;;;26.93;19.57;;;;;;;14.87;35.77;100121.08;1756069;80;21049;-73
2022/03/26 09:20:51;;;;;;;30.30;19.23;;;;;;;14.84;36.13;100116.15;1765282;80;21160;-72
2022/03/26 09:23:19;;;;;;;24.32;17.62;;;;;;;14.90;36.27;100114.44;1758881;80;21100;-72
2022/03/26 09:25:48;;;;;;;27.35;17.60;;;;;;;14.96;36.30;100100.97;1761937;80;21028;-71
2022/03/26 09:28:16;;;;;;;20.32;16.87;;;;;;;14.83;36.35;100086.34;1738825;81;21088;-72
2022/03/26 09:30:45;;;;;;;29.10;19.27;;;;;;;14.65;36.79;100089.00;1769102;80;21040;-72
2022/03/26 09:33:12;;;;;;;26.70;17.90;;;;;;;14.55;37.00;100090.30;1757321;80;21107;-70
2022/03/26 09:35:41;;;;;;;27.30;20.68;;;;;;;14.59;37.31;100085.34;1734104;81;21132;-71
2022/03/26 09:38:08;;;;;;;24.05;19.92;;;;;;;14.67;37.19;100078.34;1701145;83;21658;-71
2022/03/26 09:40:37;;;;;;;25.97;19.32;;;;;;;14.74;37.08;100068.37;1738993;81;21065;-72
2022/03/26 09:43:06;;;;;;;34.80;22.80;;;;;;;14.81;37.10;100060.80;1726398;81;21101;-71
2022/03/26 09:45:36;;;;;;;30.77;20.75;;;;;;;14.91;36.97;100055.72;1757137;80;21127;-70
2022/03/26 09:48:05;;;;;;;24.98;20.12;;;;;;;15.04;36.94;100050.72;1735251;81;21545;-71
2022/03/26 09:50:35;;;;;;;21.12;17.65;;;;;;;15.11;36.82;100030.80;1761931;79;21048;-72
2022/03/26 09:53:05;;;;;;;22.37;16.70;;;;;;;15.14;37.16;100026.84;1738443;81;21091;-71
2022/03/26 09:55:34;;;;;;;20.65;16.17;;;;;;;15.18;37.20;100013.25;1726595;81;21000;-71
2022/03/26 09:58:01;;;;;;;35.43;14.78;;;;;;;15.22;37.33;100011.78;1708767;82;22413;-71
2022/03/26 10:00:30;;;;;;;20.68;13.90;;;;;;;15.31;37.30;100013.11;1721202;80;21101;-71
2022/03/26 10:02:58;;;;;;;18.25;12.53;;;;;;;15.34;37.12;99984.97;1736153;80;21041;-71
2022/03/26 10:05:36;;;;;;;23.15;14.30;;;;;;;15.34;37.32;99987.66;1718509;82;21001;-71
2022/03/26 10:08:20;;;;;;;13.08;11.00;;;;;;;15.40;37.13;99980.02;1727489;81;21040;-71
2022/03/26 10:10:49;;;;;;;17.82;12.18;;;;;;;15.48;37.12;99974.84;1682744;83;21621;-71
2022/03/26 10:13:47;;;;;;;17.20;12.10;;;;;;;15.58;37.60;99973.77;1746676;81;21113;-71
2022/03/26 10:16:19;;;;;;;20.48;10.58;;;;;;;15.70;37.10;99955.80;1724873;81;21116;-72
2022/03/26 10:18:49;;;;;;;21.25;12.88;;;;;;;15.87;36.94;99948.44;1708290;82;21606;-71
2022/03/26 10:21:21;;;;;;;18.77;11.20;;;;;;;16.02;36.65;99931.31;1727898;81;21042;-70
2022/03/26 10:23:53;;;;;;;12.82;9.40;;;;;;;16.12;36.20;99914.59;1733046;81;21623;-73
2022/03/26 10:26:23;;;;;;;14.18;9.28;;;;;;;16.09;35.91;99921.80;1779175;80;21093;-72
2022/03/26 10:28:58;;;;;;;9.88;8.23;;;;;;;16.01;36.14;99924.32;1761602;80;21130;-71
2022/03/26 10:34:19;;;;;;;15.75;7.95;;;;;;;15.99;35.66;99907.58;1722321;81;21536;-72
2022/03/26 10:36:57;;;;;;;18.27;8.58;;;;;;;16.03;35.44;99902.55;1710564;82;21572;-71
2022/03/26 10:39:29;;;;;;;15.53;7.37;;;;;;;16.07;34.46;99885.73;1712266;82;21145;-70
2022/03/26 10:41:58;;;;;;;16.48;8.68;;;;;;;16.11;34.67;99882.86;1751348;81;21013;-71
2022/03/26 10:44:29;;;;;;;16.25;8.30;;;;;;;16.09;34.16;99864.80;1759910;80;21563;-71
2022/03/26 10:47:01;;;;;;;17.30;7.85;;;;;;;16.05;34.39;99871.72;1722355;81;21064;-72
2022/03/26 10:49:33;;;;;;;18.40;8.03;;;;;;;16.05;34.47;99859.62;1721838;81;21060;-73
2022/03/26 10:52:14;;;;;;;17.98;8.35;;;;;;;16.10;34.03;99862.39;1725166;81;20978;-71
2022/03/26 10:54:42;;;;;;;19.45;8.68;;;;;;;16.10;34.24;99854.33;1720687;82;21313;-72
2022/03/26 10:57:10;;;;;;;25.97;9.50;;;;;;;16.06;33.97;99846.45;1767935;80;21008;-71
2022/03/26 10:59:39;;;;;;;20.62;8.68;;;;;;;16.00;34.05;99820.52;1744505;80;21079;-71
2022/03/26 11:02:06;;;;;;;21.85;7.90;;;;;;;15.95;34.21;99823.94;1748082;80;20977;-71
2022/03/26 11:04:34;;;;;;;15.28;8.08;;;;;;;15.61;34.46;99756.23;1748933;80;21029;-71
2022/03/26 11:07:03;;;;;;;16.20;8.28;;;;;;;15.99;34.23;99792.00;1750120;80;21002;-72
2022/03/26 11:09:32;;;;;;;19.37;7.92;;;;;;;16.03;34.17;99786.46;1771051;80;20990;-71
2022/03/26 11:12:01;;;;;;;17.92;7.20;;;;;;;16.06;33.92;99780.59;1742929;80;21095;-73
2022/03/26 11:14:33;;;;;;;13.55;8.53;;;;;;;16.07;33.49;99786.27;1760297;80;21525;-71
2022/03/26 11:17:32;;;;;;;19.85;8.70;;;;;;;16.07;33.63;99751.32;1772246;79;21082;-72
2022/03/26 11:20:36;;;;;;;14.38;8.55;;;;;;;16.07;33.85;99764.77;1772371;79;22122;-73
2022/03/26 11:23:28;;;;;;;12.30;7.65;;;;;;;16.14;33.91;99767.30;1750440;80;21596;-72
2022/03/26 11:26:16;;;;;;;13.45;7.40;;;;;;;16.22;33.68;99755.34;1795544;79;21061;-71
2022/03/26 11:29:38;;;;;;;19.90;9.30;;;;;;;16.06;33.70;99751.02;1754032;80;20980;-72
2022/03/26 11:32:35;;;;;;;18.60;7.72;;;;;;;16.05;33.69;99729.74;1771851;79;21595;-71